Time;durP1;ratioP1;P1;durP2;ratioP2;P2;SDS_P1;SDS_P2;PMS_P1;PMS_P2;Temp;Humidity;BMP_temperature;BMP_pressure;BME280_temperature;BME280_humidity;BME280_pressure;Samples;Min_cycle;Max_cycle;Signal;HPM_P1;HPM_P2
2022/12/14 00:01:43;;;;;;;8.77;6.80;;;19.20;27.30;;;;;;5051769;28;20053;-51
2022/12/14 00:04:09;;;;;;;7.95;6.57;;;19.20;27.30;;;;;;5032113;28;20025;-51
2022/12/14 00:06:35;;;;;;;10.48;7.35;;;19.20;27.30;;;;;;5050962;28;20027;-51
2022/12/14 00:09:03;;;;;;;8.15;6.35;;;19.20;27.30;;;;;;5052089;28;20433;-54
2022/12/14 00:11:30;;;;;;;8.02;6.25;;;19.20;27.30;;;;;;5051577;28;20059;-50
2022/12/14 00:13:58;;;;;;;8.63;7.00;;;19.20;27.30;;;;;;5053122;28;20568;-52
2022/12/14 00:16:27;;;;;;;8.52;7.07;;;19.20;27.30;;;;;;5046564;28;20352;-52
2022/12/14 00:18:54;;;;;;;7.70;6.32;;;19.10;27.20;;;;;;5052812;28;20063;-51
2022/12/14 00:21:20;;;;;;;8.52;6.68;;;19.10;27.30;;;;;;5050512;28;20036;-52
2022/12/14 00:23:49;;;;;;;8.43;6.90;;;19.10;27.40;;;;;;5052825;28;20029;-52
2022/12/14 00:26:25;;;;;;;8.77;6.57;;;19.10;27.40;;;;;;5048296;28;20043;-49
2022/12/14 00:28:52;;;;;;;8.82;6.40;;;19.10;27.30;;;;;;5052123;28;20048;-51
2022/12/14 00:31:19;;;;;;;7.57;6.30;;;19.10;27.30;;;;;;5053649;28;20116;-52
2022/12/14 00:33:45;;;;;;;7.25;5.90;;;19.10;27.30;;;;;;5050569;28;20091;-51
2022/12/14 00:36:13;;;;;;;10.38;6.68;;;19.10;27.20;;;;;;5051156;28;20104;-51
2022/12/14 00:38:39;;;;;;;7.72;5.82;;;19.00;27.20;;;;;;5052616;28;20036;-52
2022/12/14 00:41:05;;;;;;;8.82;6.85;;;19.00;27.20;;;;;;5050662;28;20368;-51
2022/12/14 00:43:31;;;;;;;8.38;6.43;;;19.00;27.20;;;;;;5051505;28;20460;-53
2022/12/14 00:45:57;;;;;;;8.65;6.55;;;19.00;27.20;;;;;;5051822;28;20029;-54
2022/12/14 00:48:24;;;;;;;8.23;5.93;;;19.00;27.20;;;;;;5050390;28;20021;-53
2022/12/14 00:50:52;;;;;;;8.10;5.80;;;19.00;27.20;;;;;;5051589;28;20436;-54
2022/12/14 00:53:18;;;;;;;7.78;5.95;;;19.00;27.20;;;;;;5050406;28;20025;-52
2022/12/14 00:55:46;;;;;;;7.70;5.93;;;19.00;27.20;;;;;;5050972;28;20344;-51
2022/12/14 00:58:14;;;;;;;8.27;6.50;;;19.00;27.20;;;;;;5051654;28;20025;-52
2022/12/14 01:00:41;;;;;;;7.15;5.45;;;19.00;27.20;;;;;;5051997;28;20037;-50
2022/12/14 01:03:07;;;;;;;7.65;5.60;;;19.00;27.70;;;;;;5049357;28;20077;-53
2022/12/14 01:05:34;;;;;;;7.65;5.88;;;19.00;27.20;;;;;;5051327;28;20297;-55
2022/12/14 01:07:59;;;;;;;7.38;5.50;;;18.90;27.10;;;;;;5050369;28;20040;-53
2022/12/14 01:10:25;;;;;;;8.43;6.32;;;18.90;27.10;;;;;;5051474;28;20024;-52
2022/12/14 01:12:51;;;;;;;7.93;6.15;;;18.90;27.10;;;;;;5051028;28;20112;-51
2022/12/14 01:15:17;;;;;;;7.95;6.05;;;18.90;27.60;;;;;;5051234;28;20055;-57
2022/12/14 01:17:43;;;;;;;7.85;5.72;;;18.90;27.10;;;;;;5050556;28;20033;-52
2022/12/14 01:20:09;;;;;;;6.82;5.45;;;18.90;27.10;;;;;;5050334;28;20041;-51
2022/12/14 01:22:35;;;;;;;7.65;6.18;;;18.90;27.10;;;;;;5047009;28;20037;-48
2022/12/14 01:25:02;;;;;;;7.95;5.85;;;18.80;27.10;;;;;;5051404;28;20032;-54
2022/12/14 01:27:28;;;;;;;7.18;5.50;;;18.90;27.10;;;;;;5051988;28;20455;-50
2022/12/14 01:29:53;;;;;;;6.57;5.35;;;18.80;27.10;;;;;;5050432;28;20025;-51
2022/12/14 01:32:19;;;;;;;6.70;5.63;;;18.90;27.10;;;;;;5049639;28;20052;-52
2022/12/14 01:34:47;;;;;;;7.10;5.72;;;18.80;27.10;;;;;;5049585;28;20032;-50
2022/12/14 01:37:13;;;;;;;6.88;5.60;;;18.80;27.10;;;;;;5052052;28;20344;-52
2022/12/14 01:39:39;;;;;;;6.53;5.25;;;18.80;27.10;;;;;;5048182;28;20060;-51
2022/12/14 01:42:12;;;;;;;6.22;5.13;;;18.80;27.10;;;;;;5050804;28;20072;-52
2022/12/14 01:44:38;;;;;;;6.30;5.18;;;18.80;27.20;;;;;;5047887;28;20028;-55
2022/12/14 01:47:15;;;;;;;7.10;5.65;;;18.80;27.30;;;;;;5046602;28;20437;-54
2022/12/14 01:50:09;;;;;;;7.35;5.15;;;18.80;27.30;;;;;;5047432;28;20033;-53
2022/12/14 01:52:42;;;;;;;6.18;5.32;;;18.80;27.20;;;;;;5051383;28;20025;-51
2022/12/14 01:55:11;;;;;;;6.05;5.20;;;18.70;27.20;;;;;;5050594;28;20021;-50
2022/12/14 01:58:15;;;;;;;7.50;5.10;;;18.70;27.20;;;;;;5054903;28;20029;-47
2022/12/14 02:00:42;;;;;;;6.63;5.43;;;18.70;27.10;;;;;;5048291;28;20136;-51
2022/12/14 02:03:19;;;;;;;6.57;4.88;;;18.70;27.10;;;;;;5054733;28;20025;-50
2022/12/14 02:05:54;;;;;;;6.57;5.38;;;18.70;27.10;;;;;;5054749;28;20032;-52
2022/12/14 02:08:22;;;;;;;6.25;4.90;;;18.70;27.10;;;;;;5049628;28;20756;-49
2022/12/14 02:10:48;;;;;;;6.32;4.85;;;18.70;27.10;;;;;;5053384;28;20037;-50
2022/12/14 02:13:22;;;;;;;6.07;4.93;;;18.70;27.10;;;;;;5054482;28;20349;-52
2022/12/14 02:15:50;;;;;;;6.47;5.18;;;18.70;27.10;;;;;;5052370;28;20025;-48
2022/12/14 02:18:20;;;;;;;6.10;4.53;;;18.70;27.10;;;;;;5052300;28;20116;-51
2022/12/14 02:21:05;;;;;;;7.25;5.38;;;18.70;27.00;;;;;;5053312;28;20083;-51
2022/12/14 02:24:07;;;;;;;6.15;5.15;;;18.60;27.00;;;;;;5054016;28;20079;-51
2022/12/14 02:26:54;;;;;;;6.18;4.88;;;18.60;27.00;;;;;;5053737;28;20048;-52
2022/12/14 02:29:46;;;;;;;6.45;5.10;;;18.60;27.00;;;;;;5051396;28;20453;-51
2022/12/14 02:32:30;;;;;;;6.70;5.22;;;18.60;27.00;;;;;;5055851;28;20039;-49
2022/12/14 02:35:02;;;;;;;6.35;5.15;;;18.60;26.90;;;;;;5051998;28;20043;-52
2022/12/14 02:37:51;;;;;;;6.70;4.70;;;18.60;27.00;;;;;;5051788;28;20025;-53
2022/12/14 02:40:38;;;;;;;5.43;4.50;;;18.60;27.00;;;;;;5052187;28;20108;-55
2022/12/14 02:43:19;;;;;;;5.32;4.25;;;18.50;26.90;;;;;;5050451;28;20044;-50
2022/12/14 02:45:59;;;;;;;6.45;4.50;;;18.60;26.90;;;;;;5051355;28;20483;-54
2022/12/14 02:48:34;;;;;;;5.63;4.65;;;18.50;26.90;;;;;;5053180;28;20455;-50
2022/12/14 02:51:00;;;;;;;6.13;4.55;;;18.50;26.90;;;;;;5049084;28;20075;-52
2022/12/14 02:54:01;;;;;;;4.75;3.85;;;18.50;26.90;;;;;;5053828;28;20060;-53
2022/12/14 02:56:34;;;;;;;5.93;4.63;;;18.50;26.90;;;;;;5043404;28;20049;-51
2022/12/14 02:59:02;;;;;;;5.88;4.65;;;18.50;26.80;;;;;;5053811;28;20025;-51
2022/12/14 03:01:29;;;;;;;5.22;4.25;;;18.50;26.80;;;;;;5052499;28;20044;-53
2022/12/14 03:03:54;;;;;;;5.25;4.10;;;18.50;26.80;;;;;;5054562;28;20226;-52
2022/12/14 03:06:27;;;;;;;6.18;4.72;;;18.50;26.80;;;;;;5052856;28;20494;-54
2022/12/14 03:09:12;;;;;;;5.93;4.22;;;18.50;26.80;;;;;;5054166;28;20036;-53
2022/12/14 03:12:10;;;;;;;5.20;3.72;;;18.40;26.80;;;;;;5050602;28;20340;-53
2022/12/14 03:14:43;;;;;;;5.88;4.30;;;18.50;26.80;;;;;;5036631;28;20068;-54
2022/12/14 03:17:16;;;;;;;5.50;4.25;;;18.40;26.70;;;;;;5050567;28;20108;-51
2022/12/14 03:19:59;;;;;;;5.95;4.53;;;18.40;27.20;;;;;;5051366;28;20025;-54
2022/12/14 03:22:32;;;;;;;6.00;4.70;;;18.40;26.70;;;;;;5051671;28;20372;-52
2022/12/14 03:25:04;;;;;;;6.95;4.53;;;18.40;26.70;;;;;;5050341;28;20449;-54
2022/12/14 03:27:34;;;;;;;6.38;4.70;;;18.40;26.70;;;;;;5053236;28;20642;-50
2022/12/14 03:30:11;;;;;;;6.40;4.22;;;18.40;26.70;;;;;;5050944;28;20021;-50
2022/12/14 03:32:51;;;;;;;5.18;4.25;;;18.40;26.70;;;;;;5053102;28;20029;-52
2022/12/14 03:35:23;;;;;;;5.15;4.38;;;18.40;26.70;;;;;;5031218;28;20055;-53
2022/12/14 03:37:56;;;;;;;5.55;4.55;;;18.40;26.70;;;;;;5032371;28;20029;-52
2022/12/14 03:40:29;;;;;;;4.93;3.75;;;18.30;26.60;;;;;;5053363;28;20051;-54
2022/12/14 03:43:13;;;;;;;5.05;4.00;;;18.30;26.70;;;;;;5052085;28;20076;-52
2022/12/14 03:45:56;;;;;;;5.18;4.20;;;18.30;26.60;;;;;;5051054;28;20025;-51
2022/12/14 03:48:50;;;;;;;5.47;4.25;;;18.40;26.70;;;;;;5052845;28;20036;-54
2022/12/14 03:51:44;;;;;;;5.85;4.43;;;18.40;26.70;;;;;;5051105;28;20064;-55
2022/12/14 03:54:36;;;;;;;6.03;4.30;;;18.30;26.60;;;;;;5051524;28;20048;-54
2022/12/14 03:57:16;;;;;;;5.75;4.10;;;18.30;26.60;;;;;;5051513;28;20044;-47
2022/12/14 03:59:52;;;;;;;4.90;4.25;;;18.30;26.60;;;;;;5051901;28;20149;-48
2022/12/14 04:02:28;;;;;;;5.38;3.97;;;18.30;26.70;;;;;;5050778;28;20045;-52
2022/12/14 04:05:05;;;;;;;5.68;4.05;;;18.30;26.60;;;;;;5052234;28;20349;-49
2022/12/14 04:08:08;;;;;;;5.18;3.80;;;18.30;26.60;;;;;;5050690;28;20072;-52
2022/12/14 04:19:17;;;;;;;5.78;3.80;;;18.30;27.00;;;;;;5048539;28;20078;-51
2022/12/14 04:21:51;;;;;;;4.72;3.70;;;18.30;26.90;;;;;;5050397;28;20483;-53
2022/12/14 04:27:39;;;;;;;4.78;3.72;;;18.20;26.90;;;;;;5050658;28;20025;-53
2022/12/14 04:30:08;;;;;;;5.45;3.60;;;18.20;26.80;;;;;;5051133;28;20342;-51
2022/12/14 04:32:56;;;;;;;5.13;3.85;;;18.20;26.80;;;;;;5050850;28;20079;-48
2022/12/14 04:35:30;;;;;;;4.57;3.63;;;18.20;26.80;;;;;;5050041;28;20456;-52
2022/12/14 04:38:19;;;;;;;4.68;3.33;;;18.20;26.80;;;;;;5051015;28;20036;-51
2022/12/14 04:40:51;;;;;;;4.50;3.33;;;18.20;26.80;;;;;;5049350;28;20419;-53
2022/12/14 04:43:26;;;;;;;4.25;3.30;;;18.20;26.70;;;;;;5051775;28;20024;-50
2022/12/14 04:45:54;;;;;;;;;;;18.20;26.70;;;;;;5053307;28;20087;-51
2022/12/14 04:48:20;;;;;;;4.63;3.60;;;18.20;26.70;;;;;;5052195;28;19923;-49
2022/12/14 04:50:54;;;;;;;5.30;3.65;;;18.10;26.60;;;;;;5050875;28;20025;-52
2022/12/14 04:53:27;;;;;;;4.70;3.42;;;18.10;26.60;;;;;;5049596;28;20534;-54
2022/12/14 04:55:58;;;;;;;4.50;3.50;;;18.10;26.60;;;;;;5050899;28;20036;-55
2022/12/14 04:58:27;;;;;;;5.57;3.70;;;18.10;26.60;;;;;;5052303;28;20108;-54
2022/12/14 05:01:31;;;;;;;4.18;3.40;;;18.10;26.60;;;;;;5049602;28;20360;-53
2022/12/14 05:04:19;;;;;;;5.07;3.60;;;18.10;26.60;;;;;;5048837;28;20396;-52
2022/12/14 05:07:17;;;;;;;4.43;3.50;;;18.10;26.60;;;;;;5050472;28;20040;-49
2022/12/14 05:10:06;;;;;;;4.63;3.30;;;18.10;26.60;;;;;;5048199;28;20025;-48
2022/12/14 05:13:01;;;;;;;3.83;3.10;;;18.10;26.60;;;;;;5049361;28;20025;-51
2022/12/14 05:15:38;;;;;;;4.25;3.22;;;18.10;26.60;;;;;;5050694;28;20044;-51
2022/12/14 05:18:05;;;;;;;4.40;3.13;;;18.10;26.60;;;;;;5047824;28;20031;-51
2022/12/14 05:20:31;;;;;;;5.20;3.85;;;18.10;26.60;;;;;;5050661;28;20041;-53
2022/12/14 05:22:57;;;;;;;4.70;3.60;;;18.10;26.60;;;;;;5052163;28;20045;-50
2022/12/14 05:25:23;;;;;;;4.60;3.47;;;18.10;26.60;;;;;;5048602;28;20029;-54
2022/12/14 05:27:49;;;;;;;5.15;3.50;;;18.00;26.50;;;;;;5050715;28;20333;-49
2022/12/14 05:30:15;;;;;;;4.00;3.25;;;18.10;26.60;;;;;;5051143;28;20043;-54
2022/12/14 05:32:41;;;;;;;4.55;3.45;;;18.10;26.60;;;;;;5055227;28;20037;-52
2022/12/14 05:35:08;;;;;;;5.15;3.63;;;18.10;26.60;;;;;;5037062;28;20036;-52
2022/12/14 05:37:34;;;;;;;5.20;3.63;;;18.00;26.60;;;;;;5052287;28;20025;-52
2022/12/14 05:40:00;;;;;;;3.53;2.97;;;18.00;26.60;;;;;;5054420;28;20345;-53
2022/12/14 05:42:26;;;;;;;3.92;3.25;;;18.00;26.60;;;;;;5055394;28;20037;-49
2022/12/14 05:44:52;;;;;;;4.28;3.38;;;18.00;26.60;;;;;;5055330;28;20021;-50
2022/12/14 05:47:18;;;;;;;4.18;3.53;;;18.00;26.60;;;;;;5054180;28;20356;-53
2022/12/14 05:49:43;;;;;;;4.13;3.33;;;18.00;26.60;;;;;;5055148;28;20440;-54
2022/12/14 05:52:09;;;;;;;4.40;3.28;;;18.00;26.60;;;;;;5054113;28;20021;-53
2022/12/14 05:54:35;;;;;;;4.00;3.20;;;18.00;26.60;;;;;;5055533;28;20040;-51
2022/12/14 05:57:01;;;;;;;4.82;3.30;;;18.00;26.60;;;;;;5053254;28;20025;-52
2022/12/14 05:59:27;;;;;;;4.53;3.10;;;18.00;26.60;;;;;;5054892;28;20102;-54
2022/12/14 06:01:53;;;;;;;4.15;3.15;;;18.00;26.60;;;;;;5053392;28;20483;-49
2022/12/14 06:04:19;;;;;;;3.80;2.80;;;17.90;26.60;;;;;;5055813;28;20033;-48
2022/12/14 06:06:45;;;;;;;3.92;3.10;;;18.00;26.60;;;;;;5053605;28;20021;-50
2022/12/14 06:09:16;;;;;;;4.43;3.13;;;17.90;26.60;;;;;;5053357;28;20029;-53
2022/12/14 06:11:43;;;;;;;4.80;3.05;;;17.90;26.60;;;;;;5053906;28;20399;-49
2022/12/14 06:14:11;;;;;;;4.22;3.20;;;17.90;26.60;;;;;;5054203;28;20051;-51
2022/12/14 06:16:40;;;;;;;4.32;3.25;;;17.90;26.60;;;;;;5053176;28;20035;-52
2022/12/14 06:19:07;;;;;;;4.97;3.55;;;17.90;26.60;;;;;;5053469;28;20035;-55
2022/12/14 06:21:35;;;;;;;4.28;3.22;;;17.90;26.50;;;;;;5053791;28;20051;-53
2022/12/14 06:24:02;;;;;;;4.40;3.40;;;17.90;26.60;;;;;;5054334;28;20090;-53
2022/12/14 06:26:30;;;;;;;4.45;3.47;;;17.90;26.60;;;;;;5054752;28;20021;-53
2022/12/14 06:28:57;;;;;;;3.80;2.85;;;17.90;26.60;;;;;;5054405;28;20029;-55
2022/12/14 06:31:28;;;;;;;4.40;3.10;;;17.90;26.60;;;;;;5051566;28;20056;-52
2022/12/14 06:33:57;;;;;;;3.97;3.20;;;17.90;26.60;;;;;;5054231;28;20441;-52
2022/12/14 06:36:25;;;;;;;4.35;3.17;;;17.90;26.60;;;;;;5053589;28;20122;-49
2022/12/14 06:38:55;;;;;;;3.53;2.85;;;17.90;26.60;;;;;;5050886;28;20363;-54
2022/12/14 06:41:22;;;;;;;4.63;3.22;;;17.90;26.60;;;;;;5053007;28;20037;-51
2022/12/14 06:43:49;;;;;;;4.22;2.95;;;17.90;26.60;;;;;;5053738;28;20737;-50
2022/12/14 06:46:17;;;;;;;4.22;3.10;;;17.90;26.60;;;;;;5018181;28;20058;-52
2022/12/14 06:48:49;;;;;;;3.45;2.72;;;17.80;26.50;;;;;;5050518;28;20104;-52
2022/12/14 06:51:15;;;;;;;3.63;2.78;;;17.80;26.50;;;;;;5054221;28;20242;-53
2022/12/14 06:53:40;;;;;;;4.07;3.08;;;17.80;26.60;;;;;;5050871;28;20121;-53
2022/12/14 06:56:11;;;;;;;3.30;2.70;;;17.80;26.60;;;;;;5054239;28;20460;-55
2022/12/14 06:58:38;;;;;;;4.05;3.00;;;17.80;26.60;;;;;;5053736;28;20021;-53
2022/12/14 07:01:09;;;;;;;4.22;2.83;;;17.80;26.60;;;;;;5052975;28;20081;-54
2022/12/14 07:03:35;;;;;;;4.43;3.00;;;17.80;26.60;;;;;;5053725;28;20025;-53
2022/12/14 07:06:03;;;;;;;4.65;3.10;;;17.80;26.80;;;;;;5053461;28;20056;-53
2022/12/14 07:08:31;;;;;;;3.80;2.80;;;17.80;26.60;;;;;;5052339;28;20159;-52
2022/12/14 07:11:00;;;;;;;4.18;2.92;;;17.80;26.60;;;;;;5051795;28;20373;-53
2022/12/14 07:13:29;;;;;;;3.75;2.80;;;17.80;26.60;;;;;;5052477;28;20057;-56
2022/12/14 07:15:59;;;;;;;4.22;3.13;;;17.70;26.60;;;;;;5052678;28;20033;-52
2022/12/14 07:18:26;;;;;;;3.40;2.53;;;17.80;26.70;;;;;;5052694;28;20409;-55
2022/12/14 07:20:55;;;;;;;4.10;2.85;;;17.70;26.70;;;;;;5034930;28;20359;-54
2022/12/14 07:23:21;;;;;;;3.97;2.90;;;17.70;26.70;;;;;;5053943;28;20037;-53
2022/12/14 07:25:47;;;;;;;4.72;3.10;;;17.70;26.60;;;;;;5051655;28;20025;-52
2022/12/14 07:28:13;;;;;;;3.75;2.92;;;17.70;27.20;;;;;;5053929;28;20029;-51
2022/12/14 07:30:38;;;;;;;4.15;3.33;;;17.70;26.70;;;;;;5052747;28;20029;-55
2022/12/14 07:33:04;;;;;;;3.67;3.08;;;17.70;26.70;;;;;;5051021;28;20025;-53
2022/12/14 07:35:30;;;;;;;4.10;3.03;;;17.70;26.70;;;;;;5051943;28;20095;-55
2022/12/14 07:37:56;;;;;;;3.65;2.80;;;17.70;26.70;;;;;;5053291;28;20359;-51
2022/12/14 07:40:22;;;;;;;4.78;3.20;;;17.70;26.70;;;;;;5054130;28;20029;-55
2022/12/14 07:42:49;;;;;;;5.55;2.92;;;17.70;26.70;;;;;;5050957;28;20102;-55
2022/12/14 07:45:15;;;;;;;3.80;2.92;;;17.70;26.70;;;;;;5052069;28;20025;-55
2022/12/14 07:47:41;;;;;;;4.28;3.35;;;17.70;26.70;;;;;;5049026;28;20025;-50
2022/12/14 07:50:08;;;;;;;6.17;3.03;;;17.70;26.70;;;;;;5047869;28;20039;-54
2022/12/14 07:52:34;;;;;;;4.15;3.13;;;17.70;26.70;;;;;;5049049;28;20111;-52
2022/12/14 07:54:59;;;;;;;5.47;3.63;;;17.70;26.80;;;;;;5031178;28;20117;-55
2022/12/14 07:57:25;;;;;;;3.85;3.00;;;17.70;26.80;;;;;;5051112;28;20037;-52
2022/12/14 07:59:51;;;;;;;4.75;3.03;;;17.70;26.80;;;;;;5048740;28;20373;-51
2022/12/14 08:02:17;;;;;;;3.70;3.00;;;17.70;26.80;;;;;;5048635;28;20102;-53
2022/12/14 08:04:42;;;;;;;5.55;2.95;;;17.70;26.90;;;;;;5050738;28;20368;-55
2022/12/14 08:07:08;;;;;;;4.13;3.22;;;17.70;26.90;;;;;;5050315;28;20039;-55
2022/12/14 08:09:34;;;;;;;5.97;2.75;;;17.70;27.10;;;;;;5049640;28;20116;-56
2022/12/14 08:12:00;;;;;;;4.35;3.10;;;17.70;27.20;;;;;;5049819;28;20060;-53
2022/12/14 08:14:26;;;;;;;4.15;2.92;;;17.70;27.30;;;;;;5030700;28;20040;-53
2022/12/14 08:16:51;;;;;;;3.78;2.85;;;17.70;27.30;;;;;;5050305;28;20032;-55
2022/12/14 08:19:18;;;;;;;4.40;2.78;;;17.70;27.30;;;;;;5049762;28;20052;-53
2022/12/14 08:21:44;;;;;;;4.05;3.00;;;17.70;27.30;;;;;;5050381;28;20051;-50
2022/12/14 08:24:11;;;;;;;4.85;2.92;;;17.80;27.30;;;;;;5046307;28;20248;-51
2022/12/14 08:26:38;;;;;;;4.20;3.00;;;17.80;27.30;;;;;;5052364;28;20020;-57
2022/12/14 08:29:04;;;;;;;4.57;2.97;;;17.90;27.30;;;;;;5048045;28;20445;-50
2022/12/14 08:31:31;;;;;;;5.10;3.55;;;17.90;27.20;;;;;;5014324;28;20040;-55
2022/12/14 08:33:58;;;;;;;5.35;3.28;;;18.00;27.20;;;;;;5049103;28;20091;-52
2022/12/14 08:36:29;;;;;;;6.20;3.33;;;18.00;27.10;;;;;;5048051;28;20052;-53
2022/12/14 08:39:07;;;;;;;5.75;3.47;;;18.10;27.10;;;;;;5050690;28;20104;-51
2022/12/14 08:41:33;;;;;;;4.95;3.53;;;18.20;27.10;;;;;;5053660;28;20041;-51
2022/12/14 08:44:02;;;;;;;5.40;3.72;;;18.20;27.00;;;;;;5048373;28;20486;-53
2022/12/14 08:46:30;;;;;;;5.75;3.90;;;18.30;27.00;;;;;;5049506;28;20029;-52
2022/12/14 08:48:56;;;;;;;3.92;3.03;;;18.40;26.90;;;;;;5049583;28;20029;-53
2022/12/14 08:51:24;;;;;;;4.53;3.40;;;18.40;26.90;;;;;;5048828;28;20036;-54
2022/12/14 08:53:50;;;;;;;10.90;4.38;;;18.50;26.80;;;;;;5033933;28;20033;-52
2022/12/14 08:56:20;;;;;;;4.50;3.42;;;18.60;26.80;;;;;;5048762;28;20052;-53
2022/12/14 08:58:47;;;;;;;5.18;3.20;;;18.60;26.70;;;;;;5053210;28;20029;-53
2022/12/14 09:01:16;;;;;;;4.68;3.05;;;18.70;26.70;;;;;;5045968;28;20136;-49
2022/12/14 09:03:46;;;;;;;5.03;3.60;;;18.80;27.10;;;;;;5051312;28;20064;-51
2022/12/14 09:06:14;;;;;;;5.05;3.58;;;18.90;26.60;;;;;;5052643;28;20021;-50
2022/12/14 09:08:40;;;;;;;5.07;4.00;;;18.90;26.60;;;;;;5052553;28;20071;-55
2022/12/14 09:11:11;;;;;;;5.70;3.78;;;18.90;26.60;;;;;;5054727;28;20025;-52
2022/12/14 09:13:37;;;;;;;5.38;3.70;;;19.10;26.60;;;;;;5053919;28;20053;-54
2022/12/14 09:16:06;;;;;;;5.30;3.90;;;19.10;26.50;;;;;;5054317;28;20036;-50
2022/12/14 09:18:33;;;;;;;4.97;3.85;;;19.20;26.40;;;;;;5054508;28;20075;-51
2022/12/14 09:20:59;;;;;;;5.07;3.70;;;19.30;26.40;;;;;;5054565;28;20029;-53
2022/12/14 09:23:27;;;;;;;4.88;3.67;;;19.30;26.30;;;;;;5055150;28;20029;-52
2022/12/14 09:26:04;;;;;;;4.57;3.15;;;19.40;26.30;;;;;;5054051;28;20082;-55
2022/12/14 09:28:32;;;;;;;4.93;3.63;;;19.40;26.20;;;;;;5054373;28;20410;-54
2022/12/14 09:31:00;;;;;;;5.20;3.47;;;19.50;26.20;;;;;;5054623;28;20483;-50
2022/12/14 09:33:27;;;;;;;4.57;3.42;;;19.50;26.10;;;;;;5047581;28;20127;-53
2022/12/14 09:36:05;;;;;;;4.28;3.17;;;19.60;26.10;;;;;;5054835;28;20033;-54
2022/12/14 09:38:34;;;;;;;4.15;3.17;;;19.70;26.10;;;;;;5053854;28;20032;-55
2022/12/14 09:41:02;;;;;;;5.65;4.10;;;19.70;26.00;;;;;;5054378;28;20423;-50
2022/12/14 09:44:09;;;;;;;5.35;3.78;;;19.80;26.00;;;;;;5054066;28;20036;-53
2022/12/14 09:47:02;;;;;;;4.55;3.45;;;19.80;25.90;;;;;;5039887;28;20049;-50
2022/12/14 09:49:32;;;;;;;4.28;3.38;;;19.90;25.90;;;;;;5053402;28;20037;-52
2022/12/14 09:52:01;;;;;;;5.13;3.75;;;19.90;25.80;;;;;;5054490;28;20099;-55
2022/12/14 09:54:34;;;;;;;6.35;3.47;;;20.00;25.80;;;;;;5054800;28;20029;-52
2022/12/14 09:57:33;;;;;;;4.40;3.58;;;20.00;25.70;;;;;;5054255;28;20112;-55
2022/12/14 09:59:59;;;;;;;5.53;3.65;;;20.10;25.70;;;;;;5048748;28;20380;-56
2022/12/14 10:02:29;;;;;;;5.88;3.92;;;20.10;25.70;;;;;;5053603;28;20052;-57
2022/12/14 10:05:02;;;;;;;4.85;4.03;;;20.20;25.70;;;;;;5054218;28;20032;-54
2022/12/14 10:07:46;;;;;;;6.32;3.78;;;20.20;25.60;;;;;;5043576;28;20117;-56
2022/12/14 10:10:25;;;;;;;4.93;3.45;;;20.20;25.60;;;;;;5019451;28;20352;-52
2022/12/14 10:12:53;;;;;;;10.43;3.65;;;20.20;25.60;;;;;;5049510;28;20053;-54
2022/12/14 10:15:31;;;;;;;5.72;4.07;;;20.30;25.60;;;;;;5048776;28;20045;-54
2022/12/14 10:18:00;;;;;;;5.55;3.58;;;20.30;25.50;;;;;;5052738;28;20021;-54
2022/12/14 10:20:49;;;;;;;5.50;3.78;;;20.30;25.50;;;;;;5051012;28;20729;-54
2022/12/14 10:23:19;;;;;;;5.53;3.55;;;20.30;25.50;;;;;;5031444;28;20033;-54
2022/12/14 10:25:50;;;;;;;4.95;3.60;;;20.30;26.00;;;;;;5053879;28;20025;-54
2022/12/14 10:28:42;;;;;;;4.70;3.50;;;20.30;25.50;;;;;;5051446;28;20036;-52
2022/12/14 10:31:14;;;;;;;3.70;2.85;;;20.30;25.70;;;;;;5052324;28;20108;-53
2022/12/14 10:33:45;;;;;;;4.13;2.80;;;20.30;25.90;;;;;;5052861;28;20029;-51
2022/12/14 10:36:19;;;;;;;4.57;3.15;;;20.30;26.20;;;;;;5051918;28;20348;-50
2022/12/14 10:38:54;;;;;;;7.05;3.30;;;20.40;26.40;;;;;;5050729;28;20444;-55
2022/12/14 10:41:23;;;;;;;7.40;3.28;;;20.30;26.50;;;;;;5050726;28;20698;-55
2022/12/14 10:44:21;;;;;;;4.32;2.90;;;20.40;26.60;;;;;;5030253;28;20025;-54
2022/12/14 10:46:59;;;;;;;4.88;3.30;;;20.40;26.70;;;;;;5053324;28;20043;-54
2022/12/14 10:49:41;;;;;;;4.75;3.25;;;20.30;26.70;;;;;;5053628;28;20032;-54
2022/12/14 10:52:17;;;;;;;5.32;3.25;;;20.30;26.80;;;;;;5033025;28;20411;-53
2022/12/14 10:54:54;;;;;;;5.32;3.72;;;20.40;26.90;;;;;;5056210;28;20079;-50
2022/12/14 10:57:25;;;;;;;5.32;3.08;;;20.30;27.00;;;;;;5056904;28;20058;-55
2022/12/14 10:59:51;;;;;;;5.47;3.53;;;20.30;27.00;;;;;;5057134;28;20037;-55
2022/12/14 11:02:26;;;;;;;5.63;3.30;;;20.30;26.90;;;;;;5056361;28;20071;-51
2022/12/14 11:04:54;;;;;;;5.55;3.45;;;20.30;26.80;;;;;;5048408;28;20452;-51
2022/12/14 11:07:23;;;;;;;3.92;2.90;;;20.30;26.70;;;;;;5050982;28;20033;-52
2022/12/14 11:09:50;;;;;;;4.75;3.38;;;20.30;26.70;;;;;;5050600;28;20082;-51
2022/12/14 11:12:22;;;;;;;4.38;3.35;;;20.30;26.60;;;;;;5051665;28;20021;-53
2022/12/14 11:14:58;;;;;;;6.55;3.22;;;20.30;26.50;;;;;;5048812;28;20131;-53
2022/12/14 11:17:39;;;;;;;5.43;4.22;;;20.20;26.40;;;;;;5052125;28;20029;-56
2022/12/14 11:20:08;;;;;;;4.25;3.22;;;20.20;26.40;;;;;;5049800;28;20021;-57
2022/12/14 11:23:20;;;;;;;4.25;2.92;;;20.20;26.40;;;;;;5048611;28;20068;-56
2022/12/14 11:25:52;;;;;;;4.93;3.17;;;20.20;27.20;;;;;;5047053;28;20233;-55
2022/12/14 11:28:28;;;;;;;4.85;3.10;;;20.20;27.60;;;;;;5048504;28;20356;-52
2022/12/14 11:31:15;;;;;;;4.53;3.20;;;20.20;27.90;;;;;;5056733;28;20314;-54
2022/12/14 11:33:49;;;;;;;4.32;2.72;;;20.20;28.00;;;;;;5050628;28;20523;-54
2022/12/14 11:36:39;;;;;;;4.05;2.85;;;20.20;28.30;;;;;;5050000;28;20048;-56
2022/12/14 11:39:14;;;;;;;4.72;3.03;;;20.20;28.40;;;;;;5053727;28;20036;-57
2022/12/14 11:41:45;;;;;;;3.38;2.40;;;20.20;28.60;;;;;;5038934;28;20068;-52
2022/12/14 11:44:15;;;;;;;3.95;2.85;;;20.20;28.70;;;;;;5045181;28;20033;-58
2022/12/14 11:46:59;;;;;;;5.07;3.20;;;20.20;28.80;;;;;;5050878;28;20452;-55
2022/12/14 11:49:38;;;;;;;8.80;4.30;;;20.20;28.80;;;;;;5026137;28;20103;-56
2022/12/14 11:52:04;;;;;;;17.45;7.90;;;20.20;29.10;;;;;;5048923;28;20029;-57
2022/12/14 11:54:35;;;;;;;23.48;9.95;;;20.30;30.60;;;;;;5033279;28;20041;-58
2022/12/14 11:57:11;;;;;;;32.22;12.15;;;20.20;32.50;;;;;;5050469;28;20059;-55
2022/12/14 11:59:48;;;;;;;27.00;10.02;;;20.30;34.40;;;;;;5049093;28;20064;-55
2022/12/14 12:02:34;;;;;;;27.02;9.07;;;20.30;34.50;;;;;;5049970;28;20037;-57
2022/12/14 12:05:13;;;;;;;21.63;8.52;;;20.30;33.50;;;;;;5047800;28;20102;-54
2022/12/14 12:07:48;;;;;;;16.20;7.20;;;20.30;32.70;;;;;;5048473;28;20102;-51
2022/12/14 12:10:17;;;;;;;15.70;6.40;;;20.30;31.90;;;;;;5051964;28;20118;-57
2022/12/14 12:13:04;;;;;;;14.27;6.10;;;20.30;31.30;;;;;;5039038;28;20044;-56
2022/12/14 12:15:40;;;;;;;19.67;6.40;;;20.30;30.60;;;;;;5055322;28;20049;-51
2022/12/14 12:18:21;;;;;;;16.23;6.18;;;20.30;30.10;;;;;;5035748;28;20460;-56
2022/12/14 12:20:55;;;;;;;11.82;6.13;;;20.30;29.80;;;;;;5055136;28;20029;-53
2022/12/14 12:23:29;;;;;;;12.48;5.55;;;20.30;29.60;;;;;;5055766;28;20048;-58
2022/12/14 12:25:57;;;;;;;14.48;5.53;;;20.30;29.80;;;;;;5055969;28;20090;-53
2022/12/14 12:28:31;;;;;;;8.38;5.10;;;20.30;29.20;;;;;;5032869;28;20025;-52
2022/12/14 12:31:08;;;;;;;7.85;4.72;;;20.20;28.90;;;;;;5038242;28;20037;-49
2022/12/14 12:33:45;;;;;;;9.73;5.00;;;20.20;28.70;;;;;;5047213;28;20040;-54
2022/12/14 12:36:14;;;;;;;9.40;4.43;;;20.20;28.90;;;;;;5049298;28;20068;-51
2022/12/14 12:38:52;;;;;;;8.05;4.50;;;20.20;29.20;;;;;;5051500;28;20028;-53
2022/12/14 12:41:40;;;;;;;7.35;4.28;;;20.20;29.30;;;;;;5053396;28;20124;-59
2022/12/14 12:44:48;;;;;;;5.93;3.95;;;20.20;29.50;;;;;;5036828;28;20484;-64
2022/12/14 12:47:24;;;;;;;7.10;3.72;;;20.20;29.50;;;;;;5049001;28;20083;-61
2022/12/14 12:49:50;;;;;;;7.80;3.85;;;20.30;29.60;;;;;;5046044;28;20452;-58
2022/12/14 12:52:29;;;;;;;9.35;3.80;;;20.30;29.60;;;;;;5052067;28;20021;-58
2022/12/14 12:55:16;;;;;;;6.75;3.92;;;20.40;29.70;;;;;;5053148;28;20037;-60
2022/12/14 12:57:46;;;;;;;9.57;3.80;;;20.50;29.50;;;;;;5051428;28;20025;-60
2022/12/14 13:00:20;;;;;;;5.10;3.05;;;20.60;29.40;;;;;;5050870;28;20063;-57
2022/12/14 13:02:54;;;;;;;4.32;3.17;;;20.70;29.30;;;;;;5053114;28;20047;-61
2022/12/14 13:05:24;;;;;;;5.60;3.10;;;20.80;29.20;;;;;;5052702;28;20025;-63
2022/12/14 13:08:01;;;;;;;4.88;3.13;;;20.90;29.00;;;;;;5051328;28;20507;-61
2022/12/14 13:10:31;;;;;;;4.65;2.92;;;21.00;28.90;;;;;;5035799;28;20029;-60
2022/12/14 13:13:13;;;;;;;5.25;3.03;;;21.10;28.80;;;;;;5053122;28;20408;-62
2022/12/14 13:15:50;;;;;;;4.07;2.53;;;21.20;28.70;;;;;;5033935;28;20488;-60
2022/12/14 13:18:26;;;;;;;5.60;2.80;;;21.30;28.60;;;;;;5051354;28;20059;-60
2022/12/14 13:20:54;;;;;;;4.75;2.63;;;21.40;28.50;;;;;;5032702;28;20033;-61
2022/12/14 13:23:27;;;;;;;3.65;2.45;;;21.40;28.40;;;;;;5053423;28;20045;-62
2022/12/14 13:26:15;;;;;;;5.60;2.50;;;21.50;28.30;;;;;;5052877;28;20029;-62